Time;durP1;ratioP1;P1;durP2;ratioP2;P2;SDS_P1;SDS_P2;PMS_P1;PMS_P2;Temp;Humidity;BMP_temperature;BMP_pressure;BME280_temperature;BME280_humidity;BME280_pressure;Samples;Min_cycle;Max_cycle;Signal;HPM_P1;HPM_P2
2023/11/13 00:00:53;;;;;;;;;;;;;;;;;;5054479;28;20402;-70
2023/11/13 00:03:19;;;;;;;;;;;;;;;;;;5069291;28;20007;-71
2023/11/13 00:05:45;;;;;;;;;;;;;;;;;;5057270;28;19916;-68
2023/11/13 00:08:10;;;;;;;;;;;;;;;;;;5057246;28;19965;-68
2023/11/13 00:10:39;;;;;;;;;;;;;;;;;;5053801;28;20029;-68
2023/11/13 00:13:04;;;;;;;;;;;;;;;;;;5041765;28;20426;-70
2023/11/13 00:15:29;;;;;;;;;;;;;;;;;;5054933;28;20739;-69
2023/11/13 00:17:57;;;;;;;;;;;;;;;;;;5070798;28;20560;-71
2023/11/13 00:20:23;;;;;;;;;;;;;;;;;;5052184;28;19916;-71
2023/11/13 00:22:48;;;;;;;;;;;;;;;;;;5054383;28;19916;-69
2023/11/13 00:25:18;;;;;;;;;;;;;;;;;;5057358;28;19970;-69
2023/11/13 00:27:47;;;;;;;;;;;;;;;;;;5058234;28;19977;-69
2023/11/13 00:30:16;;;;;;;;;;;;;;;;;;5053627;28;19975;-69
2023/11/13 00:32:44;;;;;;;;;;;;;;;;;;5052811;28;19920;-69
2023/11/13 00:35:09;;;;;;;;;;;;;;;;;;5053946;28;20373;-69
2023/11/13 00:37:36;;;;;;;;;;;;;;;;;;5068062;28;19916;-69
2023/11/13 00:40:04;;;;;;;;;;;;;;;;;;5052490;28;19928;-69
2023/11/13 00:42:30;;;;;;;;;;;;;;;;;;5067148;28;20008;-69
2023/11/13 00:44:55;;;;;;;;;;;;;;;;;;5070021;28;20011;-70
2023/11/13 00:47:22;;;;;;;;;;;;;;;;;;5040954;28;19920;-69
2023/11/13 00:49:48;;;;;;;;;;;;;;;;;;5040193;28;20069;-69
2023/11/13 00:52:16;;;;;;;;;;;;;;;;;;5055319;28;19920;-67
2023/11/13 00:54:41;;;;;;;;;;;;;;;;;;5037736;28;20029;-67
2023/11/13 00:57:07;;;;;;;;;;;;;;;;;;5068488;28;20313;-69
2023/11/13 00:59:35;;;;;;;;;;;;;;;;;;5054290;28;19951;-70
2023/11/13 01:02:01;;;;;;;;;;;;;;;;;;5039746;28;20022;-67
2023/11/13 01:04:26;;;;;;;;;;;;;;;;;;5067747;28;19969;-69
2023/11/13 01:06:52;;;;;;;;;;;;;;;;;;5053436;28;19920;-68
2023/11/13 01:09:20;;;;;;;;;;;;;;;;;;5057070;28;20217;-68
2023/11/13 01:11:46;;;;;;;;;;;;;;;;;;5055520;28;19945;-68
2023/11/13 01:14:13;;;;;;;;;;;;;;;;;;5054073;28;19920;-68
2023/11/13 01:16:38;;;;;;;;;;;;;;;;;;5068848;28;19955;-68
2023/11/13 01:19:04;;;;;;;;;;;;;;;;;;5039769;28;20385;-68
2023/11/13 01:21:29;;;;;;;;;;;;;;;;;;5056881;28;19920;-68
2023/11/13 01:23:58;;;;;;;;;;;;;;;;;;5057568;28;19923;-68
2023/11/13 01:26:23;;;;;;;;;;;;;;;;;;5056909;28;19955;-68
2023/11/13 01:28:48;;;;;;;;;;;;;;;;;;5068704;28;20351;-68
2023/11/13 01:31:14;;;;;;;;;;;;;;;;;;5040223;28;20426;-68
2023/11/13 01:33:39;;;;;;;;;;;;;;;;;;5039732;28;19924;-67
2023/11/13 01:36:04;;;;;;;;;;;;;;;;;;5044122;28;19920;-68
2023/11/13 01:38:30;;;;;;;;;;;;;;;;;;5057504;28;19940;-68
2023/11/13 01:40:56;;;;;;;;;;;;;;;;;;5049675;28;20410;-68
2023/11/13 01:43:21;;;;;;;;;;;;;;;;;;5055669;28;19920;-68
2023/11/13 01:45:49;;;;;;;;;;;;;;;;;;5060982;28;20077;-68
2023/11/13 01:48:14;;;;;;;;;;;;;;;;;;5069695;28;20391;-68
2023/11/13 01:50:40;;;;;;;;;;;;;;;;;;5043858;28;19924;-68
2023/11/13 01:53:11;;;;;;;;;;;;;;;;;;5058597;28;19919;-68
2023/11/13 01:55:41;;;;;;;;;;;;;;;;;;5057365;28;20333;-68
2023/11/13 01:58:06;;;;;;;;;;;;;;;;;;5072266;28;19924;-68
2023/11/13 02:00:32;;;;;;;;;;;;;;;;;;5044332;28;19916;-69
2023/11/13 02:02:57;;;;;;;;;;;;;;;;;;5040150;28;19920;-68
2023/11/13 02:05:22;;;;;;;;;;;;;;;;;;5032390;28;21474;-68
2023/11/13 02:07:50;;;;;;;;;;;;;;;;;;5042355;28;19968;-69
2023/11/13 02:10:15;;;;;;;;;;;;;;;;;;5070815;28;19920;-69
2023/11/13 02:12:44;;;;;;;;;;;;;;;;;;5045112;28;20583;-68
2023/11/13 02:15:09;;;;;;;;;;;;;;;;;;5041776;28;19924;-68
2023/11/13 02:17:38;;;;;;;;;;;;;;;;;;5042794;28;20421;-69
2023/11/13 02:20:03;;;;;;;;;;;;;;;;;;5071055;28;20394;-68
2023/11/13 02:22:28;;;;;;;;;;;;;;;;;;5072004;28;19916;-68
2023/11/13 02:24:54;;;;;;;;;;;;;;;;;;5071608;28;19920;-68
2023/11/13 02:27:22;;;;;;;;;;;;;;;;;;5060511;28;19963;-68
2023/11/13 02:29:49;;;;;;;;;;;;;;;;;;5041953;28;20283;-68
2023/11/13 02:32:18;;;;;;;;;;;;;;;;;;5042845;28;19963;-68
2023/11/13 02:34:43;;;;;;;;;;;;;;;;;;5070998;28;19966;-68
2023/11/13 02:37:12;;;;;;;;;;;;;;;;;;5068982;28;19920;-69
2023/11/13 02:39:38;;;;;;;;;;;;;;;;;;5071165;28;19922;-69
2023/11/13 02:42:03;;;;;;;;;;;;;;;;;;5071033;28;20255;-68
2023/11/13 02:44:29;;;;;;;;;;;;;;;;;;5070451;28;20021;-68
2023/11/13 02:50:11;;;;;;;;;;;;;;;;;;5072906;28;19989;-68
2023/11/13 02:52:41;;;;;;;;;;;;;;;;;;5056983;28;20235;-68
2023/11/13 02:55:06;;;;;;;;;;;;;;;;;;5069494;28;20217;-69
2023/11/13 02:57:32;;;;;;;;;;;;;;;;;;5058816;28;19930;-68
2023/11/13 02:59:57;;;;;;;;;;;;;;;;;;5057693;28;19977;-68
2023/11/13 03:02:25;;;;;;;;;;;;;;;;;;5072158;28;19924;-68
2023/11/13 03:04:50;;;;;;;;;;;;;;;;;;5070296;28;19917;-68
2023/11/13 03:07:17;;;;;;;;;;;;;;;;;;5071053;28;19926;-68
2023/11/13 03:09:43;;;;;;;;;;;;;;;;;;5068789;28;19920;-68
2023/11/13 03:12:11;;;;;;;;;;;;;;;;;;5072589;28;20286;-68
2023/11/13 03:14:38;;;;;;;;;;;;;;;;;;5057508;28;19916;-68
2023/11/13 03:17:07;;;;;;;;;;;;;;;;;;5070577;28;19926;-68
2023/11/13 03:19:33;;;;;;;;;;;;;;;;;;5069829;28;19920;-69
2023/11/13 03:21:58;;;;;;;;;;;;;;;;;;5056431;28;19924;-69
2023/11/13 03:24:23;;;;;;;;;;;;;;;;;;5058416;28;19920;-69
2023/11/13 03:26:49;;;;;;;;;;;;;;;;;;5064067;28;19923;-69
2023/11/13 03:29:14;;;;;;;;;;;;;;;;;;5055882;28;19955;-68
2023/11/13 03:31:39;;;;;;;;;;;;;;;;;;5040967;28;20024;-68
2023/11/13 03:34:05;;;;;;;;;;;;;;;;;;5048026;28;19924;-68
2023/11/13 03:36:30;;;;;;;;;;;;;;;;;;5069865;28;20291;-68
2023/11/13 03:38:55;;;;;;;;;;;;;;;;;;5055766;28;19964;-68
2023/11/13 03:41:24;;;;;;;;;;;;;;;;;;5039555;28;19916;-68
2023/11/13 03:43:49;;;;;;;;;;;;;;;;;;5061721;28;19951;-68
2023/11/13 03:46:14;;;;;;;;;;;;;;;;;;5064259;28;19912;-68
2023/11/13 03:48:40;;;;;;;;;;;;;;;;;;5053654;28;20462;-68
2023/11/13 03:51:07;;;;;;;;;;;;;;;;;;5056600;28;19928;-68
2023/11/13 03:53:34;;;;;;;;;;;;;;;;;;5056020;28;19920;-68
2023/11/13 03:56:00;;;;;;;;;;;;;;;;;;5055149;28;20106;-68
2023/11/13 03:58:28;;;;;;;;;;;;;;;;;;5038559;28;19920;-68
2023/11/13 04:00:57;;;;;;;;;;;;;;;;;;5041179;28;20047;-68
2023/11/13 04:03:22;;;;;;;;;;;;;;;;;;5040970;28;20332;-68
2023/11/13 04:05:50;;;;;;;;;;;;;;;;;;5059377;28;20005;-68
2023/11/13 04:08:18;;;;;;;;;;;;;;;;;;5041396;28;20015;-67
2023/11/13 04:10:43;;;;;;;;;;;;;;;;;;5069777;28;19916;-68
2023/11/13 04:13:13;;;;;;;;;;;;;;;;;;5054607;28;19962;-69
2023/11/13 04:15:38;;;;;;;;;;;;;;;;;;5057939;28;19982;-68
2023/11/13 04:18:04;;;;;;;;;;;;;;;;;;5041604;28;20549;-68
2023/11/13 04:20:31;;;;;;;;;;;;;;;;;;5041588;28;19920;-68
2023/11/13 04:22:56;;;;;;;;;;;;;;;;;;5058683;28;19916;-68
2023/11/13 04:25:22;;;;;;;;;;;;;;;;;;5057500;28;20440;-69
2023/11/13 04:27:47;;;;;;;;;;;;;;;;;;5043944;28;19942;-68
2023/11/13 04:30:15;;;;;;;;;;;;;;;;;;5064408;28;19923;-68
2023/11/13 04:32:41;;;;;;;;;;;;;;;;;;5054738;28;19920;-68
2023/11/13 04:35:09;;;;;;;;;;;;;;;;;;5058005;28;20283;-68
2023/11/13 04:37:36;;;;;;;;;;;;;;;;;;5055097;28;20367;-68
2023/11/13 04:40:04;;;;;;;;;;;;;;;;;;5040452;28;19919;-68
2023/11/13 04:42:30;;;;;;;;;;;;;;;;;;5069603;28;19923;-68
2023/11/13 04:44:56;;;;;;;;;;;;;;;;;;5039016;28;19916;-69
2023/11/13 04:47:21;;;;;;;;;;;;;;;;;;5055729;28;19920;-69
2023/11/13 04:49:47;;;;;;;;;;;;;;;;;;5065775;28;20477;-69
2023/11/13 04:52:12;;;;;;;;;;;;;;;;;;5040374;28;19923;-69
2023/11/13 04:54:42;;;;;;;;;;;;;;;;;;5067741;28;19955;-69
2023/11/13 04:57:08;;;;;;;;;;;;;;;;;;5069549;28;19916;-69
2023/11/13 04:59:33;;;;;;;;;;;;;;;;;;5057455;28;19931;-69
2023/11/13 05:02:01;;;;;;;;;;;;;;;;;;5069146;28;19916;-68
2023/11/13 05:04:26;;;;;;;;;;;;;;;;;;5058370;28;19916;-70
2023/11/13 05:06:51;;;;;;;;;;;;;;;;;;5052128;28;20003;-68
2023/11/13 05:09:19;;;;;;;;;;;;;;;;;;5041250;28;20395;-70
2023/11/13 05:11:47;;;;;;;;;;;;;;;;;;5056411;28;19924;-68
2023/11/13 05:14:14;;;;;;;;;;;;;;;;;;5068345;28;20011;-69
2023/11/13 05:16:40;;;;;;;;;;;;;;;;;;5067192;28;20388;-68
2023/11/13 05:19:05;;;;;;;;;;;;;;;;;;5057247;28;20015;-70
2023/11/13 05:21:31;;;;;;;;;;;;;;;;;;5053914;28;20633;-69
2023/11/13 05:23:59;;;;;;;;;;;;;;;;;;5057783;28;19915;-69
2023/11/13 05:26:25;;;;;;;;;;;;;;;;;;5042256;28;20268;-68
2023/11/13 05:28:51;;;;;;;;;;;;;;;;;;5046691;28;20015;-68
2023/11/13 05:31:16;;;;;;;;;;;;;;;;;;5070052;28;20340;-71
2023/11/13 05:33:43;;;;;;;;;;;;;;;;;;5040026;28;20003;-69
2023/11/13 05:36:11;;;;;;;;;;;;;;;;;;5056036;28;20300;-69
2023/11/13 05:38:36;;;;;;;;;;;;;;;;;;5068181;28;19931;-69
2023/11/13 05:41:02;;;;;;;;;;;;;;;;;;5057250;28;19916;-68
2023/11/13 05:43:27;;;;;;;;;;;;;;;;;;5067418;28;20557;-68
2023/11/13 05:45:52;;;;;;;;;;;;;;;;;;5053363;28;20379;-69
2023/11/13 05:48:18;;;;;;;;;;;;;;;;;;5039665;28;20607;-68
2023/11/13 05:50:43;;;;;;;;;;;;;;;;;;5040092;28;19977;-69
2023/11/13 05:53:08;;;;;;;;;;;;;;;;;;5039349;28;20007;-68
2023/11/13 05:55:36;;;;;;;;;;;;;;;;;;5056052;28;20406;-69
2023/11/13 05:58:04;;;;;;;;;;;;;;;;;;5052264;28;20171;-68
2023/11/13 06:00:32;;;;;;;;;;;;;;;;;;5035335;28;19921;-68
2023/11/13 06:02:57;;;;;;;;;;;;;;;;;;5054116;28;19923;-68
2023/11/13 06:05:23;;;;;;;;;;;;;;;;;;5070715;28;20003;-68
2023/11/13 06:07:53;;;;;;;;;;;;;;;;;;5056084;28;19924;-67
2023/11/13 06:10:20;;;;;;;;;;;;;;;;;;5055675;28;19939;-69
2023/11/13 06:12:46;;;;;;;;;;;;;;;;;;5068368;28;19920;-68
2023/11/13 06:15:14;;;;;;;;;;;;;;;;;;5056584;28;19923;-69
2023/11/13 06:17:39;;;;;;;;;;;;;;;;;;5051582;28;19920;-69
2023/11/13 06:20:07;;;;;;;;;;;;;;;;;;5053927;28;19974;-69
2023/11/13 06:22:37;;;;;;;;;;;;;;;;;;5044721;28;19916;-68
2023/11/13 06:25:05;;;;;;;;;;;;;;;;;;5058988;28;19989;-68
2023/11/13 06:27:31;;;;;;;;;;;;;;;;;;5057307;28;19920;-68
2023/11/13 06:29:56;;;;;;;;;;;;;;;;;;5049258;28;19916;-68
2023/11/13 06:32:22;;;;;;;;;;;;;;;;;;5069882;28;19931;-69
2023/11/13 06:34:47;;;;;;;;;;;;;;;;;;5056023;28;20517;-69
2023/11/13 06:37:12;;;;;;;;;;;;;;;;;;5057536;28;19920;-68
2023/11/13 06:39:39;;;;;;;;;;;;;;;;;;5042681;28;20003;-68
2023/11/13 06:42:04;;;;;;;;;;;;;;;;;;5057622;28;19962;-69
2023/11/13 06:44:32;;;;;;;;;;;;;;;;;;5071504;28;19926;-68
2023/11/13 06:47:00;;;;;;;;;;;;;;;;;;5059452;28;19920;-70
2023/11/13 06:49:25;;;;;;;;;;;;;;;;;;5059541;28;19929;-67
2023/11/13 06:51:53;;;;;;;;;;;;;;;;;;5054891;28;19927;-68
2023/11/13 06:54:21;;;;;;;;;;;;;;;;;;5058254;28;19920;-67
2023/11/13 06:56:46;;;;;;;;;;;;;;;;;;5071342;28;19920;-67
2023/11/13 06:59:12;;;;;;;;;;;;;;;;;;5041299;28;20280;-67
2023/11/13 07:01:37;;;;;;;;;;;;;;;;;;5043784;28;19916;-72
2023/11/13 07:04:04;;;;;;;;;;;;;;;;;;5054646;28;19916;-67
2023/11/13 07:06:29;;;;;;;;;;;;;;;;;;5043628;28;20269;-68
2023/11/13 07:08:55;;;;;;;;;;;;;;;;;;5040519;28;19924;-68
2023/11/13 07:11:23;;;;;;;;;;;;;;;;;;5047725;28;19927;-68
2023/11/13 07:13:48;;;;;;;;;;;;;;;;;;5058483;28;19920;-67
2023/11/13 07:16:14;;;;;;;;;;;;;;;;;;5070940;28;19942;-70
2023/11/13 07:18:42;;;;;;;;;;;;;;;;;;5069862;28;19923;-68
2023/11/13 07:21:09;;;;;;;;;;;;;;;;;;5071680;28;20267;-68
2023/11/13 07:23:36;;;;;;;;;;;;;;;;;;5040755;28;20005;-69
2023/11/13 07:26:04;;;;;;;;;;;;;;;;;;5067303;28;20852;-69
2023/11/13 07:28:30;;;;;;;;;;;;;;;;;;5043853;28;19921;-69
2023/11/13 07:30:55;;;;;;;;;;;;;;;;;;5040519;28;20416;-69
2023/11/13 07:33:23;;;;;;;;;;;;;;;;;;5071674;28;19927;-69
2023/11/13 07:35:51;;;;;;;;;;;;;;;;;;5041012;28;19931;-69
2023/11/13 07:38:19;;;;;;;;;;;;;;;;;;5058316;28;19920;-69
2023/11/13 07:40:47;;;;;;;;;;;;;;;;;;5038853;28;19924;-70
2023/11/13 07:43:12;;;;;;;;;;;;;;;;;;5054687;28;19920;-69
2023/11/13 07:45:38;;;;;;;;;;;;;;;;;;5060294;28;19954;-69
2023/11/13 07:48:05;;;;;;;;;;;;;;;;;;5043070;28;19920;-69
2023/11/13 07:50:32;;;;;;;;;;;;;;;;;;5041261;28;19939;-69
2023/11/13 07:52:57;;;;;;;;;;;;;;;;;;5056193;28;19927;-70
2023/11/13 07:55:22;;;;;;;;;;;;;;;;;;5071639;28;19989;-71
2023/11/13 07:57:48;;;;;;;;;;;;;;;;;;5054358;28;19916;-68
2023/11/13 08:00:23;;;;;;;;;;;;;;;;;;5056170;28;20114;-70
2023/11/13 08:02:53;;;;;;;;;;;;;;;;;;5036324;28;19931;-69
2023/11/13 08:05:18;;;;;;;;;;;;;;;;;;5056918;28;20391;-69
2023/11/13 08:07:46;;;;;;;;;;;;;;;;;;5041489;28;20051;-69
2023/11/13 08:10:15;;;;;;;;;;;;;;;;;;5041232;28;20386;-68
2023/11/13 08:12:45;;;;;;;;;;;;;;;;;;5043229;28;19924;-69
2023/11/13 08:15:14;;;;;;;;;;;;;;;;;;5028574;28;19970;-69
2023/11/13 08:17:39;;;;;;;;;;;;;;;;;;5069766;28;19923;-69
2023/11/13 08:20:08;;;;;;;;;;;;;;;;;;5069746;28;19921;-70
2023/11/13 08:22:35;;;;;;;;;;;;;;;;;;5052654;28;20019;-70
2023/11/13 08:25:01;;;;;;;;;;;;;;;;;;5054027;28;20316;-70
2023/11/13 08:27:27;;;;;;;;;;;;;;;;;;5039277;28;19920;-71
2023/11/13 08:29:55;;;;;;;;;;;;;;;;;;5040894;28;19919;-70
2023/11/13 08:32:20;;;;;;;;;;;;;;;;;;5040280;28;19924;-72
2023/11/13 08:34:46;;;;;;;;;;;;;;;;;;5055887;28;20051;-72
2023/11/13 08:37:14;;;;;;;;;;;;;;;;;;5069094;28;19959;-69
2023/11/13 08:39:39;;;;;;;;;;;;;;;;;;5056800;28;19920;-69
2023/11/13 08:42:05;;;;;;;;;;;;;;;;;;5039631;28;19920;-70
2023/11/13 08:44:34;;;;;;;;;;;;;;;;;;5040521;28;20383;-69
2023/11/13 08:47:00;;;;;;;;;;;;;;;;;;5055997;28;20021;-70
2023/11/13 08:49:26;;;;;;;;;;;;;;;;;;5055554;28;20303;-73
2023/11/13 08:51:51;;;;;;;;;;;;;;;;;;5052316;28;19924;-72
2023/11/13 08:54:16;;;;;;;;;;;;;;;;;;5056690;28;19968;-71
2023/11/13 08:56:42;;;;;;;;;;;;;;;;;;5056244;28;19923;-73
2023/11/13 08:59:12;;;;;;;;;;;;;;;;;;5055909;28;19955;-69
2023/11/13 09:01:40;;;;;;;;;;;;;;;;;;5069479;28;20068;-70
2023/11/13 09:04:08;;;;;;;;;;;;;;;;;;5051811;28;20572;-72
2023/11/13 09:06:35;;;;;;;;;;;;;;;;;;5042308;28;19995;-72
2023/11/13 09:09:11;;;;;;;;;;;;;;;;;;5051200;28;20560;-70
2023/11/13 09:11:47;;;;;;;;;;;;;;;;;;5054372;28;19927;-69
2023/11/13 09:14:17;;;;;;;;;;;;;;;;;;5036932;28;19920;-71
2023/11/13 09:16:42;;;;;;;;;;;;;;;;;;5050462;28;20053;-70
2023/11/13 09:19:11;;;;;;;;;;;;;;;;;;5056932;28;19924;-68
2023/11/13 09:21:39;;;;;;;;;;;;;;;;;;5038389;28;20447;-70
2023/11/13 09:24:09;;;;;;;;;;;;;;;;;;5069156;28;19938;-70
2023/11/13 09:26:34;;;;;;;;;;;;;;;;;;5053378;28;19920;-71
2023/11/13 09:29:03;;;;;;;;;;;;;;;;;;5056314;28;19920;-68
2023/11/13 09:31:28;;;;;;;;;;;;;;;;;;5038743;28;20190;-73
2023/11/13 09:33:54;;;;;;;;;;;;;;;;;;5038998;28;19927;-71
2023/11/13 09:36:22;;;;;;;;;;;;;;;;;;5054428;28;19927;-68
2023/11/13 09:38:51;;;;;;;;;;;;;;;;;;5040624;28;19916;-69
2023/11/13 09:41:19;;;;;;;;;;;;;;;;;;5052116;28;20368;-70
2023/11/13 09:43:47;;;;;;;;;;;;;;;;;;5069117;28;19925;-70
2023/11/13 09:46:12;;;;;;;;;;;;;;;;;;5057288;28;20441;-69
2023/11/13 09:48:43;;;;;;;;;;;;;;;;;;5037670;28;19919;-69
2023/11/13 09:51:09;;;;;;;;;;;;;;;;;;5096475;28;20266;-72
2023/11/13 09:53:34;;;;;;;;;;;;;;;;;;5077400;28;19915;-69
2023/11/13 09:55:59;;;;;;;;;;;;;;;;;;5094007;27;19919;-69
2023/11/13 09:58:26;;;;;;;;;;;;;;;;;;5064102;27;20117;-73
2023/11/13 10:00:51;;;;;;;;;;;;;;;;;;5065008;27;19916;-72
2023/11/13 10:03:17;;;;;;;;;;;;;;;;;;5076781;27;19920;-69
2023/11/13 10:05:44;;;;;;;;;;;;;;;;;;5078041;27;19919;-70
2023/11/13 10:08:11;;;;;;;;;;;;;;;;;;5064814;27;20326;-71
2023/11/13 10:10:45;;;;;;;;;;;;;;;;;;5097718;27;20325;-69
2023/11/13 10:13:11;;;;;;;;;;;;;;;;;;5081955;27;20175;-70
2023/11/13 10:15:37;;;;;;;;;;;;;;;;;;5063714;27;19995;-69
2023/11/13 10:18:05;;;;;;;;;;;;;;;;;;5096239;27;19924;-68
2023/11/13 10:20:30;;;;;;;;;;;;;;;;;;5060115;27;19920;-70
2023/11/13 10:22:55;;;;;;;;;;;;;;;;;;5066059;27;19926;-68
2023/11/13 10:25:21;;;;;;;;;;;;;;;;;;5063380;27;20011;-74
2023/11/13 10:27:49;;;;;;;;;;;;;;;;;;5065163;27;20002;-69
2023/11/13 10:30:14;;;;;;;;;;;;;;;;;;5086484;27;19926;-68
2023/11/13 10:32:45;;;;;;;;;;;;;;;;;;5075040;27;19961;-68
2023/11/13 10:35:11;;;;;;;;;;;;;;;;;;5062059;27;19915;-68
2023/11/13 10:37:38;;;;;;;;;;;;;;;;;;5096603;27;19916;-68
2023/11/13 10:40:07;;;;;;;;;;;;;;;;;;5097191;27;19973;-68
2023/11/13 10:42:32;;;;;;;;;;;;;;;;;;5081414;27;19930;-67
2023/11/13 10:44:58;;;;;;;;;;;;;;;;;;5066838;27;19916;-71
2023/11/13 10:47:24;;;;;;;;;;;;;;;;;;5095213;27;19915;-69
2023/11/13 10:49:50;;;;;;;;;;;;;;;;;;5064784;28;19920;-68
2023/11/13 10:52:16;;;;;;;;;;;;;;;;;;5058867;28;19927;-68
2023/11/13 10:54:42;;;;;;;;;;;;;;;;;;5055568;28;19920;-68
2023/11/13 10:57:10;;;;;;;;;;;;;;;;;;5059688;28;20371;-70
2023/11/13 10:59:36;;;;;;;;;;;;;;;;;;5042376;28;19928;-69
2023/11/13 11:02:06;;;;;;;;;;;;;;;;;;5043641;28;21493;-70
2023/11/13 11:04:32;;;;;;;;;;;;;;;;;;5043749;28;19920;-70
2023/11/13 11:06:59;;;;;;;;;;;;;;;;;;5041889;28;19916;-68
2023/11/13 11:09:24;;;;;;;;;;;;;;;;;;5058373;28;19920;-71
2023/11/13 11:11:50;;;;;;;;;;;;;;;;;;5047148;28;19921;-68
2023/11/13 11:14:15;;;;;;;;;;;;;;;;;;5044121;28;19916;-68
2023/11/13 11:16:44;;;;;;;;;;;;;;;;;;5053084;28;19923;-68
2023/11/13 11:19:14;;;;;;;;;;;;;;;;;;5057773;28;19916;-68
2023/11/13 11:21:43;;;;;;;;;;;;;;;;;;5058095;28;20007;-69
2023/11/13 11:24:08;;;;;;;;;;;;;;;;;;5057028;28;20141;-68
2023/11/13 11:26:34;;;;;;;;;;;;;;;;;;5042020;28;19920;-68
2023/11/13 11:28:59;;;;;;;;;;;;;;;;;;5042602;28;19932;-67
2023/11/13 11:31:27;;;;;;;;;;;;;;;;;;5059219;28;19928;-69
2023/11/13 11:33:52;;;;;;;;;;;;;;;;;;5056818;28;19916;-71
2023/11/13 11:36:20;;;;;;;;;;;;;;;;;;5060310;28;20347;-69
2023/11/13 11:38:45;;;;;;;;;;;;;;;;;;5053463;28;20397;-67
2023/11/13 11:41:11;;;;;;;;;;;;;;;;;;5056904;28;19923;-66
2023/11/13 11:43:38;;;;;;;;;;;;;;;;;;5042046;28;20220;-66
2023/11/13 11:46:04;;;;;;;;;;;;;;;;;;5059951;28;19912;-65
2023/11/13 11:48:30;;;;;;;;;;;;;;;;;;5051618;28;20237;-66
2023/11/13 11:50:56;;;;;;;;;;;;;;;;;;5028903;28;20019;-65
2023/11/13 11:53:23;;;;;;;;;;;;;;;;;;5034746;28;19927;-65
2023/11/13 11:55:48;;;;;;;;;;;;;;;;;;5047704;28;20367;-65
2023/11/13 11:58:15;;;;;;;;;;;;;;;;;;5045329;28;20569;-64
2023/11/13 12:00:40;;;;;;;;;;;;;;;;;;5048159;28;19927;-64
2023/11/13 12:03:07;;;;;;;;;;;;;;;;;;5052345;28;19920;-64
2023/11/13 12:05:33;;;;;;;;;;;;;;;;;;5065250;28;20011;-64
2023/11/13 12:07:59;;;;;;;;;;;;;;;;;;5064366;28;20387;-65
2023/11/13 12:10:24;;;;;;;;;;;;;;;;;;5061691;28;19924;-65
2023/11/13 12:12:49;;;;;;;;;;;;;;;;;;5036317;28;19967;-65
2023/11/13 12:15:15;;;;;;;;;;;;;;;;;;5033843;28;19916;-66
2023/11/13 12:17:40;;;;;;;;;;;;;;;;;;5060131;28;19964;-65
2023/11/13 12:20:07;;;;;;;;;;;;;;;;;;5052715;28;19923;-66
2023/11/13 12:22:32;;;;;;;;;;;;;;;;;;5062351;28;20265;-65
2023/11/13 12:24:58;;;;;;;;;;;;;;;;;;5045129;28;19961;-65
2023/11/13 12:27:24;;;;;;;;;;;;;;;;;;5064838;28;19958;-67
2023/11/13 12:29:49;;;;;;;;;;;;;;;;;;5047648;28;19942;-66
2023/11/13 12:32:17;;;;;;;;;;;;;;;;;;5054393;28;19932;-66
2023/11/13 12:34:43;;;;;;;;;;;;;;;;;;5064554;28;20387;-70
2023/11/13 12:37:08;;;;;;;;;;;;;;;;;;5033662;28;19974;-66
2023/11/13 12:39:36;;;;;;;;;;;;;;;;;;5059786;28;20920;-69
2023/11/13 12:42:04;;;;;;;;;;;;;;;;;;5039442;28;19943;-66
2023/11/13 12:44:30;;;;;;;;;;;;;;;;;;5036517;28;19916;-66
2023/11/13 12:46:56;;;;;;;;;;;;;;;;;;5061414;28;19916;-66
2023/11/13 12:49:21;;;;;;;;;;;;;;;;;;5051666;28;20455;-65
2023/11/13 12:51:47;;;;;;;;;;;;;;;;;;5068955;28;19920;-65
2023/11/13 12:54:13;;;;;;;;;;;;;;;;;;5052812;28;19920;-64
2023/11/13 12:56:39;;;;;;;;;;;;;;;;;;5069739;28;19952;-65
2023/11/13 12:59:05;;;;;;;;;;;;;;;;;;5038335;28;20015;-66
2023/11/13 13:01:30;;;;;;;;;;;;;;;;;;5069432;28;20326;-65
2023/11/13 13:03:56;;;;;;;;;;;;;;;;;;5068614;28;19920;-64
2023/11/13 13:06:21;;;;;;;;;;;;;;;;;;5039143;28;19916;-64
2023/11/13 13:08:47;;;;;;;;;;;;;;;;;;5035737;28;20295;-63
2023/11/13 13:11:16;;;;;;;;;;;;;;;;;;5051046;28;19924;-64
2023/11/13 13:13:44;;;;;;;;;;;;;;;;;;5046759;28;19923;-62
2023/11/13 13:16:13;;;;;;;;;;;;;;;;;;5054485;28;21054;-66
2023/11/13 13:18:41;;;;;;;;;;;;;;;;;;5040228;28;19920;-66
2023/11/13 13:21:10;;;;;;;;;;;;;;;;;;5054710;28;19939;-67
2023/11/13 13:23:36;;;;;;;;;;;;;;;;;;5037832;28;19932;-64
2023/11/13 13:26:03;;;;;;;;;;;;;;;;;;5056582;28;19962;-65
2023/11/13 13:28:28;;;;;;;;;;;;;;;;;;5053404;28;19920;-65
2023/11/13 13:30:56;;;;;;;;;;;;;;;;;;5059719;28;20359;-66
2023/11/13 13:33:24;;;;;;;;;;;;;;;;;;5070703;28;20493;-66
2023/11/13 13:35:52;;;;;;;;;;;;;;;;;;5061260;28;20052;-64
2023/11/13 13:38:17;;;;;;;;;;;;;;;;;;5059628;28;20231;-64
2023/11/13 13:40:44;;;;;;;;;;;;;;;;;;5059519;28;19924;-66
2023/11/13 13:43:10;;;;;;;;;;;;;;;;;;5073433;28;19916;-66
2023/11/13 13:45:35;;;;;;;;;;;;;;;;;;5059768;28;19927;-66
2023/11/13 13:48:01;;;;;;;;;;;;;;;;;;5058829;28;19920;-66
2023/11/13 13:50:29;;;;;;;;;;;;;;;;;;5045411;28;19990;-64
2023/11/13 13:53:00;;;;;;;;;;;;;;;;;;5074339;28;19912;-64
2023/11/13 13:55:27;;;;;;;;;;;;;;;;;;5052906;28;19920;-65
2023/11/13 13:57:52;;;;;;;;;;;;;;;;;;5059741;28;19923;-64
2023/11/13 14:00:23;;;;;;;;;;;;;;;;;;5060955;28;19915;-64
2023/11/13 14:02:49;;;;;;;;;;;;;;;;;;5032879;28;19917;-65
2023/11/13 14:05:16;;;;;;;;;;;;;;;;;;5072752;28;20675;-64
2023/11/13 14:07:41;;;;;;;;;;;;;;;;;;5044227;28;19959;-67
2023/11/13 14:10:08;;;;;;;;;;;;;;;;;;5061182;28;20352;-66
2023/11/13 14:12:33;;;;;;;;;;;;;;;;;;5071768;28;19930;-66
2023/11/13 14:14:59;;;;;;;;;;;;;;;;;;5044374;28;19916;-65
2023/11/13 14:17:24;;;;;;;;;;;;;;;;;;5042624;28;20014;-66
2023/11/13 14:19:49;;;;;;;;;;;;;;;;;;5045205;28;19939;-65
2023/11/13 14:22:17;;;;;;;;;;;;;;;;;;5059183;28;20410;-65
2023/11/13 14:24:42;;;;;;;;;;;;;;;;;;5058145;28;20556;-64
2023/11/13 14:27:08;;;;;;;;;;;;;;;;;;5059397;28;19931;-65
2023/11/13 14:29:34;;;;;;;;;;;;;;;;;;5056295;28;20440;-66
2023/11/13 14:31:59;;;;;;;;;;;;;;;;;;5071114;28;20297;-67
2023/11/13 14:34:25;;;;;;;;;;;;;;;;;;5072727;28;19916;-65
2023/11/13 14:36:52;;;;;;;;;;;;;;;;;;5060191;28;20501;-65
2023/11/13 14:39:20;;;;;;;;;;;;;;;;;;5043617;28;19924;-65
2023/11/13 14:41:46;;;;;;;;;;;;;;;;;;5058059;28;19927;-65
2023/11/13 14:44:11;;;;;;;;;;;;;;;;;;5061449;28;19923;-66
2023/11/13 14:46:37;;;;;;;;;;;;;;;;;;5030176;28;20406;-66
2023/11/13 14:49:02;;;;;;;;;;;;;;;;;;5071025;28;20022;-66
2023/11/13 14:51:32;;;;;;;;;;;;;;;;;;5058442;28;20310;-67
2023/11/13 14:53:58;;;;;;;;;;;;;;;;;;5043027;28;20433;-69
2023/11/13 14:56:23;;;;;;;;;;;;;;;;;;5071735;28;19970;-66
2023/11/13 14:58:48;;;;;;;;;;;;;;;;;;5056033;28;20559;-66
2023/11/13 15:01:17;;;;;;;;;;;;;;;;;;5071415;28;20039;-66
2023/11/13 15:03:43;;;;;;;;;;;;;;;;;;5054974;28;20551;-67
2023/11/13 15:06:09;;;;;;;;;;;;;;;;;;5053878;28;20843;-67
2023/11/13 15:08:34;;;;;;;;;;;;;;;;;;5071039;28;19942;-71
2023/11/13 15:11:07;;;;;;;;;;;;;;;;;;5056383;28;19924;-70
2023/11/13 15:13:32;;;;;;;;;;;;;;;;;;5072477;28;20050;-71
2023/11/13 15:16:04;;;;;;;;;;;;;;;;;;5058685;28;20007;-72
2023/11/13 15:18:29;;;;;;;;;;;;;;;;;;5059155;28;20011;-71
2023/11/13 15:20:54;;;;;;;;;;;;;;;;;;5056733;28;20463;-68
2023/11/13 15:23:21;;;;;;;;;;;;;;;;;;5072178;28;19917;-71
2023/11/13 15:25:48;;;;;;;;;;;;;;;;;;5039994;28;19927;-74
2023/11/13 15:28:19;;;;;;;;;;;;;;;;;;5072761;28;19923;-70
2023/11/13 15:30:44;;;;;;;;;;;;;;;;;;5057660;28;19920;-70
2023/11/13 15:33:09;;;;;;;;;;;;;;;;;;5055080;28;19923;-75
2023/11/13 15:35:38;;;;;;;;;;;;;;;;;;5070466;28;19924;-74
2023/11/13 15:38:03;;;;;;;;;;;;;;;;;;5056871;28;21606;-72
2023/11/13 15:40:28;;;;;;;;;;;;;;;;;;5054401;28;19920;-72
2023/11/13 15:42:54;;;;;;;;;;;;;;;;;;5060465;28;19923;-71
2023/11/13 15:45:19;;;;;;;;;;;;;;;;;;5042732;28;19977;-70
2023/11/13 15:47:45;;;;;;;;;;;;;;;;;;5056447;28;19923;-75
2023/11/13 15:50:11;;;;;;;;;;;;;;;;;;5058364;28;19932;-73
2023/11/13 15:52:40;;;;;;;;;;;;;;;;;;5080992;28;20503;-71
2023/11/13 15:55:06;;;;;;;;;;;;;;;;;;5079324;28;20003;-72
2023/11/13 15:57:31;;;;;;;;;;;;;;;;;;5062430;28;20431;-72
2023/11/13 15:59:56;;;;;;;;;;;;;;;;;;5062245;28;19916;-75
2023/11/13 16:02:21;;;;;;;;;;;;;;;;;;5091337;28;19941;-71
2023/11/13 16:04:51;;;;;;;;;;;;;;;;;;5090273;28;19920;-71
2023/11/13 16:07:21;;;;;;;;;;;;;;;;;;5080535;27;19916;-78
2023/11/13 16:09:48;;;;;;;;;;;;;;;;;;5073274;28;19923;-74
2023/11/13 16:12:17;;;;;;;;;;;;;;;;;;5092242;28;19994;-77
2023/11/13 16:14:44;;;;;;;;;;;;;;;;;;5090787;28;19916;-73
2023/11/13 16:17:09;;;;;;;;;;;;;;;;;;5080078;28;19916;-74
2023/11/13 16:19:35;;;;;;;;;;;;;;;;;;5060841;28;21433;-77
2023/11/13 16:22:00;;;;;;;;;;;;;;;;;;5079658;28;19922;-76
2023/11/13 16:24:25;;;;;;;;;;;;;;;;;;5067279;28;19920;-76
2023/11/13 16:26:52;;;;;;;;;;;;;;;;;;5078542;28;20382;-77
2023/11/13 16:29:18;;;;;;;;;;;;;;;;;;5080153;28;20153;-74
2023/11/13 16:31:43;;;;;;;;;;;;;;;;;;5080444;28;19976;-74
2023/11/13 16:34:12;;;;;;;;;;;;;;;;;;5060179;28;20026;-74
2023/11/13 16:36:38;;;;;;;;;;;;;;;;;;5060426;28;19924;-74
2023/11/13 16:39:10;;;;;;;;;;;;;;;;;;5062750;28;19973;-77
2023/11/13 16:41:37;;;;;;;;;;;;;;;;;;5072106;28;20363;-74
2023/11/13 16:44:03;;;;;;;;;;;;;;;;;;5088709;28;19985;-72